Time;durP1;ratioP1;P1;durP2;ratioP2;P2;SDS_P1;SDS_P2;PMS_P1;PMS_P2;Temp;Humidity;BMP_temperature;BMP_pressure;BME280_temperature;BME280_humidity;BME280_pressure;Samples;Min_cycle;Max_cycle;Signal;HPM_P1;HPM_P2
2021/09/23 00:00:42;;;;;;;10.05;8.15;;;;;;;7.35;100.00;93408.38;5070294;28;20127;-80
2021/09/23 00:03:20;;;;;;;10.75;8.85;;;;;;;7.34;100.00;93406.81;5070033;28;20087;-80
2021/09/23 00:05:47;;;;;;;13.35;10.13;;;;;;;7.42;100.00;93405.91;5070156;28;20055;-79
2021/09/23 00:08:15;;;;;;;10.88;9.43;;;;;;;7.27;100.00;93411.06;5069883;28;20045;-79
2021/09/23 00:10:43;;;;;;;12.13;9.40;;;;;;;7.27;100.00;93415.41;5070148;28;20048;-80
2021/09/23 00:13:10;;;;;;;12.50;9.00;;;;;;;7.37;100.00;93390.31;5070144;28;20432;-80
2021/09/23 00:15:38;;;;;;;10.98;8.48;;;;;;;7.48;100.00;93407.72;5069655;28;20044;-79
2021/09/23 00:18:07;;;;;;;10.27;8.35;;;;;;;7.72;100.00;93410.81;5069793;28;20052;-80
2021/09/23 00:20:37;;;;;;;12.48;8.73;;;;;;;7.88;100.00;93404.59;5069508;28;20052;-80
2021/09/23 00:23:04;;;;;;;10.20;8.38;;;;;;;8.14;100.00;93405.75;5069921;28;20118;-80
2021/09/23 00:25:33;;;;;;;10.52;8.23;;;;;;;8.29;100.00;93403.06;5069895;28;20056;-80
2021/09/23 00:28:00;;;;;;;10.32;8.90;;;;;;;8.37;100.00;93404.66;5069766;28;20044;-80
2021/09/23 00:30:28;;;;;;;10.00;8.60;;;;;;;8.47;100.00;93390.72;5070329;28;20052;-80
2021/09/23 00:32:55;;;;;;;11.07;9.38;;;;;;;8.60;100.00;93395.13;5070223;28;20056;-80
2021/09/23 00:35:22;;;;;;;8.88;7.32;;;;;;;8.50;100.00;93380.88;5069437;28;20048;-80
2021/09/23 00:37:49;;;;;;;9.90;8.18;;;;;;;8.64;100.00;93393.75;5069404;28;20060;-81
2021/09/23 00:40:17;;;;;;;9.52;7.43;;;;;;;8.57;100.00;93395.50;5069178;28;20052;-81
2021/09/23 00:42:48;;;;;;;8.57;7.03;;;;;;;8.52;100.00;93398.66;5069372;28;20573;-81
2021/09/23 00:45:17;;;;;;;9.10;7.22;;;;;;;8.61;100.00;93404.38;5069453;28;20048;-81
2021/09/23 00:47:43;;;;;;;11.23;8.60;;;;;;;8.60;100.00;93402.81;5069617;28;20044;-80
2021/09/23 00:50:11;;;;;;;13.68;9.75;;;;;;;8.64;100.00;93402.22;5069696;28;20048;-80
2021/09/23 00:52:38;;;;;;;12.68;8.85;;;;;;;8.61;100.00;93376.22;5069419;28;20040;-80
2021/09/23 00:55:07;;;;;;;11.65;9.02;;;;;;;8.76;100.00;93404.22;5069532;28;20048;-80
2021/09/23 00:57:33;;;;;;;11.15;8.73;;;;;;;8.73;100.00;93387.47;5069168;28;20439;-80
2021/09/23 01:00:02;;;;;;;9.65;7.55;;;;;;;8.75;100.00;93395.75;5069180;28;20044;-79
2021/09/23 01:02:29;;;;;;;10.55;8.50;;;;;;;8.76;100.00;93394.78;5069122;28;20059;-79
2021/09/23 01:04:56;;;;;;;11.50;7.55;;;;;;;8.76;100.00;93389.66;5068741;28;20463;-82
2021/09/23 01:07:23;;;;;;;10.40;8.10;;;;;;;8.76;100.00;93394.78;5069055;28;20052;-83
2021/09/23 01:09:52;;;;;;;10.32;7.85;;;;;;;8.51;100.00;93381.66;5068889;28;20053;-83
2021/09/23 01:12:21;;;;;;;9.00;6.72;;;;;;;8.42;100.00;93365.69;5068909;28;20052;-83
2021/09/23 01:14:49;;;;;;;9.20;7.00;;;;;;;8.58;100.00;93384.28;5069258;28;20405;-82
2021/09/23 01:17:18;;;;;;;9.70;7.07;;;;;;;8.47;100.00;93358.22;5069071;28;20044;-81
2021/09/23 01:19:46;;;;;;;10.18;7.18;;;;;;;8.53;100.00;93372.84;5068881;28;20044;-81
2021/09/23 01:22:15;;;;;;;9.93;7.68;;;;;;;8.47;100.00;93352.31;5068956;28;20493;-81
2021/09/23 01:24:42;;;;;;;8.70;7.20;;;;;;;8.64;100.00;93368.13;5068923;28;21679;-81
2021/09/23 01:27:10;;;;;;;7.70;6.63;;;;;;;8.71;100.00;93380.97;5068903;28;20604;-80
2021/09/23 01:29:39;;;;;;;11.57;8.90;;;;;;;8.64;100.00;93378.38;5068919;28;20059;-80
2021/09/23 01:32:07;;;;;;;8.35;5.75;;;;;;;8.48;100.00;93393.06;5069188;28;20101;-81
2021/09/23 01:34:34;;;;;;;7.03;4.63;;;;;;;8.24;100.00;93397.72;5068832;28;20056;-80
2021/09/23 01:37:01;;;;;;;6.85;5.03;;;;;;;8.10;100.00;93389.19;5068848;28;20053;-80
2021/09/23 01:39:30;;;;;;;6.40;4.72;;;;;;;7.91;100.00;93379.66;5068924;28;20048;-80
2021/09/23 01:41:57;;;;;;;6.80;5.20;;;;;;;7.75;100.00;93368.75;5068904;28;20047;-81
2021/09/23 01:44:24;;;;;;;6.97;5.47;;;;;;;7.78;100.00;93373.47;5068840;28;20106;-81
2021/09/23 01:46:51;;;;;;;7.28;5.07;;;;;;;7.78;100.00;93383.69;5069046;28;20049;-80
2021/09/23 01:49:18;;;;;;;5.82;4.65;;;;;;;7.61;100.00;93378.91;5068781;28;20053;-80
2021/09/23 01:51:45;;;;;;;6.45;4.82;;;;;;;7.58;100.00;93358.00;5068837;28;20048;-81
2021/09/23 01:54:12;;;;;;;6.18;4.72;;;;;;;7.85;100.00;93383.75;5068954;28;20056;-81
2021/09/23 01:56:41;;;;;;;6.50;4.38;;;;;;;7.88;100.00;93373.16;5068640;28;20509;-80
2021/09/23 01:59:08;;;;;;;5.45;4.13;;;;;;;7.84;100.00;93390.63;5068812;28;20051;-80
2021/09/23 02:01:35;;;;;;;5.00;4.30;;;;;;;8.00;100.00;93388.72;5068395;28;20049;-80
2021/09/23 02:04:02;;;;;;;5.80;4.22;;;;;;;7.94;100.00;93382.63;5068551;28;20056;-80
2021/09/23 02:06:29;;;;;;;6.05;4.30;;;;;;;7.67;100.00;93369.69;5068412;28;20060;-80
2021/09/23 02:08:55;;;;;;;7.20;5.10;;;;;;;7.79;100.00;93379.38;5068381;28;20783;-80
2021/09/23 02:11:22;;;;;;;6.63;4.80;;;;;;;7.72;100.00;93380.13;5068433;28;20556;-80
2021/09/23 02:13:51;;;;;;;7.05;5.13;;;;;;;7.56;100.00;93382.97;5068529;28;20508;-80
2021/09/23 02:16:18;;;;;;;5.57;4.50;;;;;;;7.49;100.00;93365.03;5069081;28;20048;-80
2021/09/23 02:18:45;;;;;;;4.72;4.03;;;;;;;7.47;100.00;93383.13;5072375;28;20056;-82
2021/09/23 02:21:12;;;;;;;5.95;4.43;;;;;;;7.27;100.00;93361.75;5071995;28;20060;-82
2021/09/23 02:23:39;;;;;;;6.75;4.50;;;;;;;7.65;100.00;93379.31;5071633;28;20143;-82
2021/09/23 02:26:06;;;;;;;5.18;3.92;;;;;;;7.40;100.00;93356.72;5072103;28;20040;-82
2021/09/23 02:28:34;;;;;;;7.25;5.18;;;;;;;7.78;100.00;93376.03;5071878;28;20055;-82
2021/09/23 02:31:03;;;;;;;6.30;5.03;;;;;;;8.00;100.00;93391.28;5072054;28;20442;-82
2021/09/23 02:33:29;;;;;;;5.30;4.70;;;;;;;8.15;100.00;93389.41;5071838;28;20094;-82
2021/09/23 02:35:56;;;;;;;5.72;4.72;;;;;;;8.29;100.00;93379.25;5071849;28;20048;-82
2021/09/23 02:38:23;;;;;;;5.60;4.05;;;;;;;8.37;100.00;93375.69;5071804;28;20048;-82
2021/09/23 02:40:50;;;;;;;5.82;3.97;;;;;;;8.46;100.00;93373.78;5071929;28;20451;-81
2021/09/23 02:43:17;;;;;;;5.40;3.72;;;;;;;8.45;100.00;93360.19;5071845;28;20041;-81
2021/09/23 02:45:43;;;;;;;4.78;3.33;;;;;;;8.35;100.00;93387.91;5071583;28;20052;-81
2021/09/23 02:48:12;;;;;;;4.82;3.97;;;;;;;8.07;100.00;93365.75;5071462;28;20051;-82
2021/09/23 02:50:39;;;;;;;4.40;3.13;;;;;;;8.10;100.00;93380.72;5071294;28;20052;-81
2021/09/23 02:53:05;;;;;;;4.90;3.65;;;;;;;7.85;100.00;93376.88;5071390;28;20518;-81
2021/09/23 02:55:33;;;;;;;5.10;3.38;;;;;;;7.84;100.00;93382.16;5071399;28;20052;-81
2021/09/23 02:57:59;;;;;;;4.00;3.22;;;;;;;7.52;100.00;93346.78;5071657;28;20052;-83
2021/09/23 03:00:26;;;;;;;6.07;3.80;;;;;;;7.79;100.00;93390.41;5071532;28;20048;-81
2021/09/23 03:02:53;;;;;;;4.65;3.65;;;;;;;7.98;100.00;93385.59;5071284;28;20044;-81
2021/09/23 03:05:21;;;;;;;4.28;3.08;;;;;;;7.93;100.00;93390.47;5071189;28;20531;-81
2021/09/23 03:07:48;;;;;;;4.15;3.17;;;;;;;7.91;100.00;93389.88;5071477;28;20493;-81
2021/09/23 03:10:15;;;;;;;4.43;3.13;;;;;;;7.91;100.00;93397.56;5070740;28;20052;-81
2021/09/23 03:12:42;;;;;;;4.10;3.30;;;;;;;7.95;100.00;93391.88;5070939;28;20409;-82
2021/09/23 03:15:09;;;;;;;4.30;3.20;;;;;;;8.04;100.00;93386.63;5070896;28;20044;-81
2021/09/23 03:17:36;;;;;;;5.00;3.15;;;;;;;8.01;100.00;93375.75;5071381;28;20414;-81
2021/09/23 03:20:04;;;;;;;4.40;3.03;;;;;;;7.91;100.00;93366.88;5070874;28;20516;-80
2021/09/23 03:22:33;;;;;;;4.55;3.45;;;;;;;7.76;100.00;93354.97;5070931;28;20048;-80
2021/09/23 03:25:00;;;;;;;3.90;2.70;;;;;;;7.93;100.00;93395.59;5071053;28;20054;-80
2021/09/23 03:27:27;;;;;;;3.60;2.88;;;;;;;7.96;100.00;93387.56;5070390;28;20045;-80
2021/09/23 03:29:54;;;;;;;4.25;3.38;;;;;;;8.01;100.00;93377.53;5071016;28;20459;-80
2021/09/23 03:32:20;;;;;;;4.22;3.40;;;;;;;7.94;100.00;93389.50;5070995;28;20102;-80
2021/09/23 03:34:47;;;;;;;5.30;3.45;;;;;;;7.92;100.00;93388.91;5070971;28;20451;-80
2021/09/23 03:37:14;;;;;;;4.60;3.78;;;;;;;7.91;100.00;93380.44;5070791;28;20803;-80
2021/09/23 03:39:42;;;;;;;5.40;3.80;;;;;;;7.88;100.00;93384.16;5070548;28;20044;-80
2021/09/23 03:42:09;;;;;;;7.63;3.78;;;;;;;7.94;100.00;93374.16;5070808;28;20048;-80
2021/09/23 03:44:36;;;;;;;6.97;3.58;;;;;;;7.95;100.00;93381.63;5070649;28;20045;-79
2021/09/23 03:47:03;;;;;;;4.10;3.33;;;;;;;7.71;100.00;93349.63;5070351;28;20519;-80
2021/09/23 03:49:30;;;;;;;4.57;3.30;;;;;;;8.05;100.00;93388.19;5070638;28;20056;-80
2021/09/23 03:51:57;;;;;;;4.47;3.45;;;;;;;8.18;100.00;93382.34;5070308;28;20056;-80
2021/09/23 03:54:24;;;;;;;4.03;3.00;;;;;;;8.32;100.00;93390.88;5070589;28;20044;-80
2021/09/23 03:56:52;;;;;;;5.75;3.10;;;;;;;8.30;100.00;93393.63;5070078;28;20098;-80
2021/09/23 03:59:19;;;;;;;4.88;3.50;;;;;;;8.06;100.00;93356.50;5070113;28;20052;-80
2021/09/23 04:01:48;;;;;;;4.95;3.67;;;;;;;8.22;100.00;93388.66;5070348;28;20048;-80
2021/09/23 04:04:15;;;;;;;7.28;4.80;;;;;;;8.00;100.00;93391.28;5070081;28;20052;-80
2021/09/23 04:06:43;;;;;;;6.18;4.03;;;;;;;8.04;100.00;93407.06;5070281;28;20057;-80
2021/09/23 04:09:10;;;;;;;6.90;3.97;;;;;;;8.04;100.00;93412.97;5069869;28;20052;-81
2021/09/23 04:11:37;;;;;;;5.75;4.10;;;;;;;8.07;100.00;93411.81;5069982;28;20048;-80
2021/09/23 04:14:06;;;;;;;4.55;3.75;;;;;;;8.00;100.00;93416.88;5069837;28;20056;-81
2021/09/23 04:16:33;;;;;;;4.20;3.60;;;;;;;7.73;100.00;93420.06;5069838;28;20048;-80
2021/09/23 04:19:00;;;;;;;7.28;3.92;;;;;;;7.70;100.00;93415.34;5069736;28;20049;-80
2021/09/23 04:21:28;;;;;;;4.72;3.90;;;;;;;7.48;100.00;93402.59;5070201;28;20041;-80
2021/09/23 04:23:55;;;;;;;4.68;3.45;;;;;;;7.48;100.00;93407.72;5069543;28;20052;-80
2021/09/23 04:26:21;;;;;;;4.43;3.38;;;;;;;7.50;100.00;93415.16;5069897;28;20040;-81
2021/09/23 04:28:48;;;;;;;4.88;3.70;;;;;;;7.64;100.00;93433.94;5069911;28;20044;-80
2021/09/23 04:31:17;;;;;;;4.05;3.22;;;;;;;7.75;100.00;93430.09;5069351;28;20075;-80
2021/09/23 04:33:44;;;;;;;5.47;4.35;;;;;;;7.88;100.00;93434.53;5069780;28;20052;-80
2021/09/23 04:36:11;;;;;;;4.93;3.63;;;;;;;8.04;100.00;93445.44;5069529;28;20052;-81
2021/09/23 04:38:38;;;;;;;4.80;3.53;;;;;;;8.13;100.00;93440.00;5068968;28;20493;-80
2021/09/23 04:41:04;;;;;;;4.65;3.40;;;;;;;8.08;100.00;93431.28;5069427;28;20102;-81
2021/09/23 04:43:31;;;;;;;5.07;4.07;;;;;;;8.35;100.00;93455.25;5069699;28;20413;-81
2021/09/23 04:45:58;;;;;;;5.07;3.58;;;;;;;8.51;100.00;93461.03;5069585;28;20438;-80
2021/09/23 04:48:26;;;;;;;6.60;4.18;;;;;;;8.60;100.00;93466.81;5069659;28;20048;-80
2021/09/23 04:50:53;;;;;;;5.38;3.83;;;;;;;8.43;100.00;93437.16;5069202;28;20398;-80
2021/09/23 04:53:20;;;;;;;4.18;3.30;;;;;;;8.77;100.00;93467.28;5069545;28;20098;-80
2021/09/23 04:55:47;;;;;;;5.20;3.80;;;;;;;8.76;100.00;93478.50;5069460;28;20090;-80
2021/09/23 04:58:14;;;;;;;4.50;3.60;;;;;;;8.62;100.00;93455.41;5069036;28;20864;-81
2021/09/23 05:00:41;;;;;;;6.97;4.82;;;;;;;8.85;100.00;93491.94;5069373;28;20052;-81
2021/09/23 05:03:10;;;;;;;5.72;4.18;;;;;;;8.58;100.00;93497.75;5069484;28;20056;-81
2021/09/23 05:05:39;;;;;;;6.30;4.53;;;;;;;8.48;100.00;93481.91;5068772;28;20055;-80
2021/09/23 05:08:07;;;;;;;6.25;4.63;;;;;;;8.69;100.00;93494.63;5069464;28;20440;-80
2021/09/23 05:10:35;;;;;;;5.97;4.43;;;;;;;8.71;100.00;93496.22;5068730;28;20685;-80
2021/09/23 05:13:02;;;;;;;7.15;4.63;;;;;;;8.63;100.00;93479.22;5068964;28;20041;-81
2021/09/23 05:15:29;;;;;;;6.65;5.07;;;;;;;8.68;100.00;93492.25;5068986;28;20041;-81
2021/09/23 05:17:56;;;;;;;5.82;4.20;;;;;;;8.73;100.00;93496.81;5068894;28;20044;-80
2021/09/23 05:20:23;;;;;;;6.55;5.25;;;;;;;8.79;100.00;93501.16;5069250;28;20055;-80
2021/09/23 05:22:52;;;;;;;6.72;4.65;;;;;;;8.80;100.00;93507.88;5069313;28;20049;-80
2021/09/23 05:25:19;;;;;;;6.38;4.45;;;;;;;8.61;100.00;93512.72;5069131;28;20048;-80
2021/09/23 05:27:45;;;;;;;6.10;4.63;;;;;;;8.40;100.00;93513.56;5069200;28;20044;-80
2021/09/23 05:30:13;;;;;;;6.22;4.78;;;;;;;8.29;100.00;93520.00;5068971;28;20057;-80
2021/09/23 05:32:41;;;;;;;5.97;4.75;;;;;;;8.10;100.00;93499.19;5069344;28;20413;-80
2021/09/23 05:35:09;;;;;;;6.00;4.65;;;;;;;8.23;100.00;93515.59;5069174;28;20447;-80
2021/09/23 05:37:36;;;;;;;6.88;5.13;;;;;;;8.14;100.00;93515.78;5068918;28;20389;-80
2021/09/23 05:40:06;;;;;;;6.25;4.85;;;;;;;8.24;100.00;93520.53;5069141;28;20071;-80
2021/09/23 05:42:32;;;;;;;5.88;4.65;;;;;;;8.28;100.00;93519.19;5068839;28;20048;-80
2021/09/23 05:44:59;;;;;;;7.68;5.00;;;;;;;8.22;100.00;93525.06;5069083;28;20040;-80
2021/09/23 05:47:26;;;;;;;6.25;5.05;;;;;;;8.21;100.00;93526.06;5069016;28;20056;-80
2021/09/23 05:49:53;;;;;;;8.13;5.68;;;;;;;7.88;100.00;93513.81;5068710;28;20052;-79
2021/09/23 05:52:20;;;;;;;6.20;5.22;;;;;;;8.06;100.00;93538.91;5072406;28;20056;-79
2021/09/23 05:54:47;;;;;;;6.32;4.75;;;;;;;8.16;100.00;93541.94;5072500;28;20045;-80
2021/09/23 05:57:20;;;;;;;7.93;5.97;;;;;;;8.27;100.00;93529.63;5072542;28;20052;-80
2021/09/23 05:59:47;;;;;;;7.25;5.93;;;;;;;8.35;100.00;93544.84;5072435;28;20044;-80
2021/09/23 06:02:15;;;;;;;7.50;5.85;;;;;;;8.53;100.00;93552.06;5072638;28;20044;-80
2021/09/23 06:04:41;;;;;;;7.30;5.10;;;;;;;8.51;100.00;93545.50;5072339;28;20501;-79
2021/09/23 06:07:08;;;;;;;7.57;5.10;;;;;;;8.36;100.00;93550.75;5072347;28;20052;-79
2021/09/23 06:09:35;;;;;;;6.95;5.50;;;;;;;8.48;100.00;93551.03;5072455;28;20486;-79
2021/09/23 06:12:02;;;;;;;6.82;5.45;;;;;;;8.42;100.00;93537.19;5072427;28;20056;-79
2021/09/23 06:14:31;;;;;;;8.27;5.75;;;;;;;8.50;100.00;93549.84;5072243;28;20057;-79
2021/09/23 06:16:58;;;;;;;7.63;6.05;;;;;;;8.51;100.00;93556.56;5072225;28;20084;-79
2021/09/23 06:19:25;;;;;;;7.78;5.95;;;;;;;8.40;100.00;93554.53;5072093;28;20048;-79
2021/09/23 06:21:52;;;;;;;7.93;6.13;;;;;;;8.47;100.00;93562.25;5072152;28;20048;-79
2021/09/23 06:24:19;;;;;;;8.07;6.53;;;;;;;8.57;100.00;93546.56;5072242;28;20066;-80
2021/09/23 06:26:45;;;;;;;7.72;5.72;;;;;;;8.80;100.00;93559.88;5072105;28;20094;-79
2021/09/23 06:29:12;;;;;;;6.68;5.25;;;;;;;8.78;100.00;93548.25;5072245;28;20094;-80
2021/09/23 06:31:41;;;;;;;8.07;5.90;;;;;;;9.04;100.00;93565.53;5071805;28;20044;-80
2021/09/23 06:34:08;;;;;;;8.75;6.13;;;;;;;9.07;100.00;93546.41;5071765;28;20048;-80
2021/09/23 06:36:35;;;;;;;9.40;6.40;;;;;;;9.28;100.00;93565.19;5071603;28;20052;-80
2021/09/23 06:39:02;;;;;;;7.22;5.63;;;;;;;9.34;100.00;93567.78;5072029;28;20075;-80
2021/09/23 06:41:29;;;;;;;7.45;5.60;;;;;;;9.56;100.00;93572.78;5071640;28;20052;-80
2021/09/23 06:43:56;;;;;;;7.70;6.15;;;;;;;9.68;100.00;93579.91;5071862;28;20420;-81
2021/09/23 06:46:23;;;;;;;9.25;6.60;;;;;;;9.70;100.00;93573.59;5071566;28;20098;-80
2021/09/23 06:48:52;;;;;;;11.98;7.35;;;;;;;9.69;100.00;93576.34;5071544;28;20049;-81
2021/09/23 06:51:18;;;;;;;9.13;6.50;;;;;;;9.79;100.00;93588.78;5071164;28;20041;-80
2021/09/23 06:53:45;;;;;;;11.45;7.05;;;;;;;9.76;99.58;93590.78;5071749;28;20068;-82
2021/09/23 06:56:12;;;;;;;10.80;7.30;;;;;;;9.88;99.88;93585.88;5077700;28;20130;-82
2021/09/23 06:58:39;;;;;;;12.10;7.95;;;;;;;10.06;99.62;93587.06;5089422;28;20044;-82
2021/09/23 07:01:06;;;;;;;10.90;7.00;;;;;;;10.06;98.61;93586.25;5089905;28;20389;-82
2021/09/23 07:03:33;;;;;;;8.52;6.47;;;;;;;10.11;97.45;93589.84;5070455;28;20052;-81
2021/09/23 07:06:01;;;;;;;10.63;7.50;;;;;;;10.26;98.36;93588.84;5071059;28;20516;-81
2021/09/23 07:08:28;;;;;;;19.50;11.25;;;;;;;10.43;97.90;93587.47;5071359;28;20052;-82
2021/09/23 07:10:55;;;;;;;8.30;6.40;;;;;;;10.49;95.53;93593.59;5070870;28;20049;-81
2021/09/23 07:13:22;;;;;;;9.15;6.90;;;;;;;9.94;97.52;93568.88;5071211;28;20110;-81
2021/09/23 07:15:48;;;;;;;11.15;7.13;;;;;;;10.10;96.88;93569.50;5071219;28;20450;-83
2021/09/23 07:18:15;;;;;;;9.05;6.80;;;;;;;10.36;95.24;93589.22;5070809;28;20052;-82
2021/09/23 07:20:42;;;;;;;12.02;6.97;;;;;;;10.44;95.96;93565.16;5071188;28;20052;-82
2021/09/23 07:23:10;;;;;;;13.70;7.75;;;;;;;10.76;94.39;93603.03;5071156;28;20071;-82
2021/09/23 07:25:37;;;;;;;10.65;7.60;;;;;;;10.80;92.03;93597.28;5070783;28;20048;-82
2021/09/23 07:28:04;;;;;;;10.18;7.03;;;;;;;10.90;93.09;93598.66;5070745;28;20489;-82
2021/09/23 07:30:31;;;;;;;12.80;8.75;;;;;;;10.89;91.01;93595.31;5070964;28;20041;-82
2021/09/23 07:32:58;;;;;;;7.10;5.50;;;;;;;10.74;90.03;93585.25;5070332;28;20059;-80
2021/09/23 07:35:25;;;;;;;6.35;5.07;;;;;;;10.46;88.51;93575.22;5070744;28;20048;-82
2021/09/23 07:37:52;;;;;;;7.70;5.88;;;;;;;10.68;90.98;93578.34;5070513;28;20052;-82
2021/09/23 07:40:20;;;;;;;5.25;4.07;;;;;;;10.03;86.39;93565.16;5070345;28;20053;-80
2021/09/23 07:42:47;;;;;;;6.00;4.90;;;;;;;10.47;88.48;93575.03;5070367;28;20044;-81
2021/09/23 07:45:14;;;;;;;9.93;5.15;;;;;;;10.27;86.83;93552.69;5070453;28;20050;-82
2021/09/23 07:47:41;;;;;;;5.13;4.40;;;;;;;10.59;86.19;93584.72;5070628;28;20048;-81
2021/09/23 07:50:09;;;;;;;5.85;4.32;;;;;;;10.61;85.54;93588.66;5070393;28;20040;-82
2021/09/23 07:52:36;;;;;;;5.50;4.45;;;;;;;10.61;84.74;93593.78;5069978;28;20048;-80
2021/09/23 07:55:04;;;;;;;5.45;4.53;;;;;;;10.42;84.11;93572.25;5070421;28;20052;-81
2021/09/23 07:57:34;;;;;;;5.28;3.85;;;;;;;10.26;83.69;93571.66;5070198;28;20048;-80
2021/09/23 08:00:02;;;;;;;6.68;4.50;;;;;;;10.24;86.10;93557.44;5070007;28;20048;-83
2021/09/23 08:02:29;;;;;;;5.63;4.38;;;;;;;10.40;84.12;93585.28;5070324;28;20075;-82
2021/09/23 08:04:55;;;;;;;5.72;4.43;;;;;;;10.31;84.81;93583.91;5070027;28;20056;-81
2021/09/23 08:07:22;;;;;;;4.97;4.13;;;;;;;9.95;85.03;93560.19;5070038;28;20481;-80
2021/09/23 08:09:49;;;;;;;7.60;4.70;;;;;;;9.72;86.12;93586.25;5070190;28;20126;-80
2021/09/23 08:12:16;;;;;;;6.28;5.00;;;;;;;9.90;87.96;93588.22;5069686;28;20394;-79
2021/09/23 08:14:44;;;;;;;6.85;5.15;;;;;;;10.08;88.80;93585.09;5068834;28;20504;-81
2021/09/23 08:17:11;;;;;;;8.02;5.80;;;;;;;10.38;88.20;93584.66;5069935;28;20040;-80
2021/09/23 08:19:38;;;;;;;9.00;5.85;;;;;;;10.66;87.83;93590.63;5069625;28;20493;-82
2021/09/23 08:22:05;;;;;;;8.50;6.07;;;;;;;11.04;87.10;93579.66;5069412;28;20059;-81
2021/09/23 08:24:33;;;;;;;7.43;5.72;;;;;;;11.13;86.39;93576.84;5069615;28;20059;-82
2021/09/23 08:27:00;;;;;;;8.05;6.20;;;;;;;11.20;84.69;93578.41;5069563;28;20508;-81
2021/09/23 08:29:26;;;;;;;6.57;5.65;;;;;;;10.83;84.70;93578.91;5069799;28;20103;-80
2021/09/23 08:31:55;;;;;;;6.72;5.43;;;;;;;11.10;85.73;93585.75;5069798;28;20059;-81
2021/09/23 08:34:22;;;;;;;6.63;5.45;;;;;;;11.27;85.42;93577.59;5069376;28;20143;-80
2021/09/23 08:36:49;;;;;;;5.78;4.97;;;;;;;11.06;84.66;93593.09;5069553;28;20513;-81
2021/09/23 08:39:16;;;;;;;7.50;5.63;;;;;;;11.00;84.53;93575.91;5069198;28;20051;-81
2021/09/23 08:41:44;;;;;;;6.35;4.93;;;;;;;10.79;84.21;93602.66;5069637;28;20051;-81
2021/09/23 08:44:11;;;;;;;7.15;5.40;;;;;;;10.86;83.96;93598.28;5069382;28;20086;-80
2021/09/23 08:46:38;;;;;;;6.50;4.68;;;;;;;11.15;83.09;93598.00;5069490;28;20052;-82
2021/09/23 08:49:08;;;;;;;6.72;4.43;;;;;;;11.37;81.40;93588.22;5069403;28;20054;-82
2021/09/23 08:51:37;;;;;;;6.47;4.90;;;;;;;11.55;80.85;93602.97;5069101;28;20056;-81
2021/09/23 08:54:04;;;;;;;5.47;4.45;;;;;;;11.60;80.00;93595.44;5069398;28;20048;-82
2021/09/23 08:56:31;;;;;;;9.45;7.63;;;;;;;11.61;79.34;93579.00;5069102;28;20135;-82
2021/09/23 08:58:57;;;;;;;6.93;4.75;;;;;;;11.58;79.64;93563.97;5069027;28;20497;-83
2021/09/23 09:01:32;;;;;;;5.38;4.63;;;;;;;11.66;79.29;93582.75;5069454;28;20459;-81
2021/09/23 09:04:00;;;;;;;5.35;4.10;;;;;;;11.33;78.77;93590.41;5069337;28;20037;-81
2021/09/23 09:06:29;;;;;;;4.78;4.28;;;;;;;11.47;80.32;93575.72;5069196;28;20053;-82
2021/09/23 09:08:56;;;;;;;6.25;4.28;;;;;;;11.80;78.54;93594.53;5068878;28;20055;-82
2021/09/23 09:11:24;;;;;;;4.18;3.50;;;;;;;11.54;77.53;93601.41;5069146;28;20048;-81
2021/09/23 09:13:53;;;;;;;5.70;4.63;;;;;;;11.38;79.32;93602.66;5069018;28;20063;-80
2021/09/23 09:16:22;;;;;;;5.00;4.10;;;;;;;11.40;78.56;93579.31;5069378;28;20049;-81
2021/09/23 09:18:50;;;;;;;5.47;4.45;;;;;;;11.81;79.24;93600.47;5069098;28;20052;-81
2021/09/23 09:21:19;;;;;;;5.75;4.22;;;;;;;11.73;78.40;93601.50;5068879;28;20520;-81
2021/09/23 09:23:50;;;;;;;8.38;4.07;;;;;;;11.95;79.22;93604.53;5069307;28;20044;-81
2021/09/23 09:26:29;;;;;;;5.00;3.95;;;;;;;12.00;78.02;93589.25;5071430;28;20141;-81
2021/09/23 09:28:58;;;;;;;5.05;3.67;;;;;;;12.42;77.43;93603.44;5073150;28;20047;-82
2021/09/23 09:31:26;;;;;;;8.63;4.55;;;;;;;12.48;77.67;93588.91;5072975;28;20501;-81
2021/09/23 09:33:56;;;;;;;5.82;4.20;;;;;;;12.72;76.86;93591.69;5073117;28;20066;-81
2021/09/23 09:36:31;;;;;;;6.07;4.40;;;;;;;12.98;75.85;93592.41;5073251;28;20049;-81
2021/09/23 09:39:02;;;;;;;5.38;3.95;;;;;;;12.21;76.21;93589.94;5073104;28;20049;-81
2021/09/23 09:41:34;;;;;;;7.05;4.30;;;;;;;12.52;76.65;93578.00;5072797;28;20044;-82
2021/09/23 09:44:01;;;;;;;8.00;5.90;;;;;;;12.94;75.17;93600.59;5072827;28;20044;-82
2021/09/23 09:46:30;;;;;;;5.18;3.88;;;;;;;12.81;69.98;93595.56;5073088;28;20049;-81
2021/09/23 09:48:57;;;;;;;4.18;3.60;;;;;;;13.08;70.92;93595.28;5081488;28;20047;-81
2021/09/23 09:51:36;;;;;;;6.00;4.53;;;;;;;12.40;70.81;93593.34;5084562;28;20047;-81
2021/09/23 09:54:05;;;;;;;4.78;4.07;;;;;;;12.71;69.81;93593.47;5082907;28;20469;-82
2021/09/23 09:56:32;;;;;;;4.63;3.80;;;;;;;13.10;74.67;93588.09;5081442;28;20044;-82
2021/09/23 09:59:12;;;;;;;5.13;3.40;;;;;;;13.19;69.23;93588.63;5081884;28;20492;-81
2021/09/23 10:01:40;;;;;;;5.05;3.78;;;;;;;12.58;73.43;93554.94;5081435;28;20047;-81
2021/09/23 10:04:08;;;;;;;5.78;4.03;;;;;;;13.28;72.60;93583.97;5084736;28;20048;-82
2021/09/23 10:06:37;;;;;;;4.50;3.60;;;;;;;13.38;66.17;93581.63;5080326;28;20091;-81
2021/09/23 10:09:05;;;;;;;73.65;33.38;;;;;;;13.77;70.47;93581.38;5081325;28;20036;-82
2021/09/23 10:11:33;;;;;;;8.15;4.43;;;;;;;13.66;67.46;93575.16;5084033;28;20052;-82
2021/09/23 10:14:02;;;;;;;4.90;3.47;;;;;;;13.12;68.22;93564.69;5080037;28;20047;-82
2021/09/23 10:16:30;;;;;;;4.18;3.10;;;;;;;12.89;70.46;93560.97;5081180;28;20509;-81
2021/09/23 10:18:57;;;;;;;3.75;2.85;;;;;;;12.46;64.53;93565.16;5081290;28;20402;-81
2021/09/23 10:21:25;;;;;;;4.43;3.17;;;;;;;13.14;64.82;93573.78;5083997;28;20471;-82
2021/09/23 10:23:52;;;;;;;5.18;3.38;;;;;;;13.45;69.26;93551.41;5092280;28;20528;-82
2021/09/23 10:26:25;;;;;;;5.28;3.42;;;;;;;13.74;67.37;93532.75;5090190;28;20044;-81
2021/09/23 10:28:55;;;;;;;5.30;3.40;;;;;;;14.03;65.65;93562.13;5090791;28;20131;-81
2021/09/23 10:31:31;;;;;;;7.20;4.20;;;;;;;13.95;67.74;93557.28;5075360;28;20123;-81
2021/09/23 10:34:00;;;;;;;5.70;3.90;;;;;;;14.25;67.14;93558.22;5101260;28;20135;-82
2021/09/23 10:36:28;;;;;;;4.03;3.15;;;;;;;14.13;60.69;93546.06;5112070;28;20557;-82
2021/09/23 10:38:56;;;;;;;5.82;3.38;;;;;;;14.49;66.32;93543.50;5111427;28;20055;-82
2021/09/23 10:41:26;;;;;;;3.90;3.05;;;;;;;14.72;65.38;93536.75;5112617;28;20100;-82
2021/09/23 10:43:54;;;;;;;4.60;3.47;;;;;;;14.47;64.05;93540.38;5112433;28;20047;-81
2021/09/23 10:46:24;;;;;;;5.07;3.70;;;;;;;14.56;61.53;93551.16;5095655;28;20388;-81
2021/09/23 10:48:52;;;;;;;4.30;3.13;;;;;;;13.41;63.06;93532.19;5091733;28;20052;-81
2021/09/23 10:51:19;;;;;;;4.63;3.45;;;;;;;13.27;66.23;93559.16;5091987;28;20394;-80
2021/09/23 10:53:52;;;;;;;5.13;3.70;;;;;;;13.63;66.92;93554.97;5091340;28;20044;-81
2021/09/23 10:56:21;;;;;;;3.55;2.78;;;;;;;13.55;64.97;93568.16;5091751;28;20052;-81
2021/09/23 10:58:51;;;;;;;4.43;3.22;;;;;;;12.82;64.70;93551.53;5091540;28;20101;-80
2021/09/23 11:01:24;;;;;;;4.70;3.08;;;;;;;12.43;65.32;93523.38;5091960;28;20495;-80
2021/09/23 11:03:53;;;;;;;4.05;3.10;;;;;;;13.15;67.69;93562.47;5092058;28;20082;-80
2021/09/23 11:06:20;;;;;;;4.57;3.00;;;;;;;13.36;65.80;93557.84;5091707;28;20056;-80
2021/09/23 11:08:48;;;;;;;3.33;2.53;;;;;;;13.15;66.51;93553.94;5091461;28;20157;-80
2021/09/23 11:11:16;;;;;;;3.83;2.85;;;;;;;13.55;67.70;93537.97;5091563;28;20158;-81
2021/09/23 11:13:43;;;;;;;4.38;2.80;;;;;;;13.81;66.88;93543.00;5091576;28;20140;-81
2021/09/23 11:16:13;;;;;;;3.47;2.58;;;;;;;14.11;63.04;93562.81;5091278;28;20051;-80
2021/09/23 11:18:41;;;;;;;4.85;2.90;;;;;;;14.19;66.71;93541.81;5091312;28;20093;-80
2021/09/23 11:21:09;;;;;;;5.78;2.58;;;;;;;14.63;64.30;93543.28;5093114;28;20492;-82
2021/09/23 11:23:38;;;;;;;3.90;2.70;;;;;;;14.62;60.39;93539.91;5111871;28;20143;-81
2021/09/23 11:26:05;;;;;;;3.70;2.72;;;;;;;14.66;62.68;93555.75;5111467;28;20044;-80
2021/09/23 11:28:32;;;;;;;4.32;2.95;;;;;;;14.55;61.46;93558.09;5111338;28;20047;-79
2021/09/23 11:31:00;;;;;;;4.07;2.50;;;;;;;14.10;61.82;93543.16;5111331;28;20492;-80
2021/09/23 11:33:29;;;;;;;5.47;2.90;;;;;;;14.31;61.17;93547.00;5111585;28;20423;-79